Time;durP1;ratioP1;P1;durP2;ratioP2;P2;SDS_P1;SDS_P2;PMS_P1;PMS_P2;Temp;Humidity;BMP_temperature;BMP_pressure;BME280_temperature;BME280_humidity;BME280_pressure;Samples;Min_cycle;Max_cycle;Signal;HPM_P1;HPM_P2
2022/11/12 00:02:03;;;;;;;1999.90;999.90;;;;;;;5.33;100.00;102267.47;5040498;28;20591;-74
2022/11/12 00:04:47;;;;;;;1999.90;999.90;;;;;;;5.28;100.00;102265.53;5038839;28;20049;-74
2022/11/12 00:07:31;;;;;;;1999.90;999.90;;;;;;;5.26;100.00;102263.69;5040242;28;20045;-73
2022/11/12 00:10:15;;;;;;;1999.90;999.90;;;;;;;5.19;100.00;102265.16;5040179;28;20036;-74
2022/11/12 00:12:59;;;;;;;1999.90;999.90;;;;;;;5.14;100.00;102263.19;5044828;28;20139;-74
2022/11/12 00:15:45;;;;;;;1999.90;999.90;;;;;;;5.14;100.00;102269.31;5045270;28;20589;-73
2022/11/12 00:18:29;;;;;;;1999.90;999.90;;;;;;;5.15;100.00;102272.81;5043382;28;20044;-74
2022/11/12 00:21:13;;;;;;;1999.90;999.90;;;;;;;5.14;100.00;102277.16;5041935;28;20095;-74
2022/11/12 00:23:57;;;;;;;1999.90;999.90;;;;;;;5.18;100.00;102273.81;5045391;28;20170;-74
2022/11/12 00:26:41;;;;;;;1999.90;999.90;;;;;;;5.23;100.00;102271.41;5046102;28;20086;-73
2022/11/12 00:29:25;;;;;;;1999.90;999.90;;;;;;;5.23;100.00;102269.69;5046098;28;20557;-73
2022/11/12 00:32:09;;;;;;;1999.90;999.90;;;;;;;5.22;100.00;102270.53;5040768;28;20064;-73
2022/11/12 00:34:53;;;;;;;1999.90;999.90;;;;;;;5.21;100.00;102268.75;5042169;28;20056;-74
2022/11/12 00:37:36;;;;;;;1999.90;999.90;;;;;;;5.20;100.00;102272.19;5042167;28;20491;-74
2022/11/12 00:40:21;;;;;;;1999.90;999.90;;;;;;;5.18;100.00;102267.69;5036813;28;20091;-74
2022/11/12 00:43:04;;;;;;;1999.90;999.90;;;;;;;5.10;100.00;102272.59;5043872;28;20047;-74
2022/11/12 00:45:48;;;;;;;1999.90;999.90;;;;;;;5.03;100.00;102271.44;5043367;28;20132;-73
2022/11/12 00:48:32;;;;;;;1999.90;999.90;;;;;;;4.99;100.00;102276.47;5042268;28;20045;-73
2022/11/12 00:51:16;;;;;;;1999.90;999.90;;;;;;;4.94;100.00;102278.88;5041076;28;20416;-74
2022/11/12 00:54:01;;;;;;;1999.90;999.90;;;;;;;4.84;100.00;102276.66;5045368;28;20048;-74
2022/11/12 00:56:46;;;;;;;1999.90;999.90;;;;;;;4.76;100.00;102283.28;5045351;28;20094;-74
2022/11/12 00:59:30;;;;;;;1999.90;999.90;;;;;;;4.68;100.00;102287.28;5045448;28;20044;-73
2022/11/12 01:02:14;;;;;;;1999.90;999.90;;;;;;;4.62;100.00;102282.66;5044126;28;20636;-73
2022/11/12 01:04:58;;;;;;;1999.90;999.90;;;;;;;4.59;100.00;102285.13;5039676;28;20048;-73
2022/11/12 01:07:42;;;;;;;1999.90;999.90;;;;;;;4.55;100.00;102280.56;5042850;28;20056;-74
2022/11/12 01:10:26;;;;;;;1999.90;999.90;;;;;;;4.54;100.00;102284.91;5038557;28;20103;-74
2022/11/12 01:13:10;;;;;;;1999.90;999.90;;;;;;;4.51;100.00;102281.28;5043052;28;20114;-74
2022/11/12 01:15:54;;;;;;;1999.90;999.90;;;;;;;4.51;100.00;102282.16;5043080;28;20056;-73
2022/11/12 01:18:38;;;;;;;1999.90;999.90;;;;;;;4.47;100.00;102285.44;5041098;28;20463;-74
2022/11/12 01:21:27;;;;;;;1999.90;999.90;;;;;;;4.43;100.00;102280.91;5040646;28;20044;-74
2022/11/12 01:24:12;;;;;;;1999.90;999.90;;;;;;;4.38;100.00;102282.41;5040664;28;20056;-74
2022/11/12 01:26:56;;;;;;;1999.90;999.90;;;;;;;4.33;100.00;102266.50;5038940;28;20071;-74
2022/11/12 01:29:40;;;;;;;1999.90;999.90;;;;;;;4.27;100.00;102274.06;5042108;28;20113;-73
2022/11/12 01:32:23;;;;;;;1999.90;999.90;;;;;;;4.25;100.00;102280.03;5042293;28;20095;-74
2022/11/12 01:35:07;;;;;;;1999.90;999.90;;;;;;;4.23;100.00;102276.47;5042408;28;20052;-74
2022/11/12 01:37:51;;;;;;;1999.90;999.90;;;;;;;4.20;100.00;102271.09;5044157;28;20047;-74
2022/11/12 01:40:35;;;;;;;1999.90;999.90;;;;;;;4.15;100.00;102276.09;5039354;28;20060;-74
2022/11/12 01:43:19;;;;;;;1999.90;999.90;;;;;;;4.08;100.00;102267.03;5042244;28;20119;-74
2022/11/12 01:49:12;;;;;;;1999.90;999.90;;;;;;;3.95;100.00;102273.38;5003658;28;20108;-74
2022/11/12 01:52:26;;;;;;;1999.90;999.90;;;;;;;3.90;100.00;102274.00;5004324;28;20125;-74
2022/11/12 01:55:17;;;;;;;;;;;;;;;3.90;100.00;102266.16;5007596;28;20041;-74
2022/11/12 01:58:09;;;;;;;1999.90;999.90;;;;;;;3.89;100.00;102267.88;5016876;28;20362;-74
2022/11/12 02:00:53;;;;;;;1999.90;999.90;;;;;;;3.87;100.00;102264.28;5021779;28;20048;-74
2022/11/12 02:03:36;;;;;;;1999.90;999.90;;;;;;;3.89;100.00;102269.59;5021836;28;20058;-74
2022/11/12 02:06:22;;;;;;;1999.90;999.90;;;;;;;3.84;100.00;102264.16;5021222;28;20048;-74
2022/11/12 02:09:06;;;;;;;1999.90;999.90;;;;;;;3.82;100.00;102254.44;5021189;28;20044;-74
2022/11/12 02:11:50;;;;;;;1999.90;999.90;;;;;;;3.84;100.00;102258.03;5022735;28;20621;-74
2022/11/12 02:14:34;;;;;;;1999.90;999.90;;;;;;;3.80;100.00;102254.38;5022223;28;20053;-74
2022/11/12 02:17:18;;;;;;;1999.90;999.90;;;;;;;3.70;100.00;102255.66;5020901;28;20459;-74
2022/11/12 02:20:02;;;;;;;1999.90;999.90;;;;;;;3.76;100.00;102262.88;5020470;28;20069;-74
2022/11/12 02:22:46;;;;;;;1999.90;999.90;;;;;;;3.76;100.00;102260.28;5023155;28;20041;-74
2022/11/12 02:25:30;;;;;;;1999.90;999.90;;;;;;;3.79;100.00;102270.84;5022786;28;20136;-74
2022/11/12 02:28:15;;;;;;;1999.90;999.90;;;;;;;3.85;100.00;102265.97;5021835;28;20044;-73
2022/11/12 02:30:59;;;;;;;1999.90;999.90;;;;;;;3.88;100.00;102266.09;5021414;28;20092;-74
2022/11/12 02:33:43;;;;;;;1999.90;999.90;;;;;;;3.92;100.00;102262.81;5022011;28;20411;-74
2022/11/12 02:36:28;;;;;;;1999.90;999.90;;;;;;;4.03;100.00;102272.88;5025409;28;20473;-74
2022/11/12 02:39:11;;;;;;;1999.90;999.90;;;;;;;4.08;100.00;102264.44;5020785;28;20056;-74
2022/11/12 02:41:56;;;;;;;1999.90;999.90;;;;;;;4.22;100.00;102275.56;5026974;28;20052;-74
2022/11/12 02:44:39;;;;;;;1999.90;999.90;;;;;;;4.24;100.00;102270.41;5021298;28;20468;-74
2022/11/12 02:47:23;;;;;;;1999.90;999.90;;;;;;;4.30;100.00;102278.56;5020112;28;20487;-74
2022/11/12 02:50:08;;;;;;;1999.90;999.90;;;;;;;4.34;100.00;102278.75;5020059;28;20048;-74
2022/11/12 02:52:52;;;;;;;1999.90;999.90;;;;;;;4.34;100.00;102278.75;5022979;28;20053;-74
2022/11/12 02:55:36;;;;;;;1999.90;999.90;;;;;;;4.38;100.00;102285.91;5021914;28;20044;-74
2022/11/12 02:58:21;;;;;;;1999.90;999.90;;;;;;;4.48;100.00;102278.50;5021539;28;20059;-74
2022/11/12 03:01:06;;;;;;;1999.90;999.90;;;;;;;4.55;100.00;102281.47;5021186;28;20057;-74
2022/11/12 03:03:50;;;;;;;1999.90;999.90;;;;;;;4.63;100.00;102286.16;5021967;28;20116;-74
2022/11/12 03:06:34;;;;;;;1999.90;999.90;;;;;;;4.61;100.00;102293.91;5021923;28;20061;-74
2022/11/12 03:09:18;;;;;;;1999.90;999.90;;;;;;;4.65;100.00;102289.75;5020329;28;20045;-74
2022/11/12 03:12:02;;;;;;;1999.90;999.90;;;;;;;4.66;100.00;102297.66;5022094;28;20095;-74
2022/11/12 03:14:46;;;;;;;1999.90;999.90;;;;;;;4.64;100.00;102294.09;5021253;28;20049;-75
2022/11/12 03:17:30;;;;;;;1999.90;999.90;;;;;;;4.65;100.00;102295.88;5020236;28;20088;-74
2022/11/12 03:20:14;;;;;;;1999.90;999.90;;;;;;;4.59;100.00;102300.81;5019738;28;20045;-74
2022/11/12 03:23:00;;;;;;;1999.90;999.90;;;;;;;4.50;100.00;102306.50;5023092;28;20419;-74
2022/11/12 03:25:44;;;;;;;1999.90;999.90;;;;;;;4.38;100.00;102301.59;5021849;28;20068;-74
2022/11/12 03:28:27;;;;;;;1999.90;999.90;;;;;;;4.28;100.00;102303.72;5021083;28;20045;-74
2022/11/12 03:31:12;;;;;;;1999.90;999.90;;;;;;;4.20;100.00;102303.34;5020591;28;20060;-74
2022/11/12 03:33:55;;;;;;;1999.90;999.90;;;;;;;4.16;100.00;102299.66;5021613;28;20081;-74
2022/11/12 03:36:39;;;;;;;1999.90;999.90;;;;;;;4.10;100.00;102298.50;5022214;28;20044;-74
2022/11/12 03:39:23;;;;;;;1999.90;999.90;;;;;;;4.07;100.00;102303.56;5020133;28;20100;-74
2022/11/12 03:42:08;;;;;;;1999.90;999.90;;;;;;;4.00;100.00;102307.59;5023363;28;20044;-74
2022/11/12 03:44:52;;;;;;;1999.90;999.90;;;;;;;3.94;100.00;102312.53;5024719;28;20435;-74
2022/11/12 03:47:41;;;;;;;1999.90;999.90;;;;;;;3.87;100.00;102311.31;5023588;28;20079;-74
2022/11/12 03:50:27;;;;;;;1999.90;999.90;;;;;;;3.82;100.00;102311.91;5023956;28;20411;-74
2022/11/12 03:53:11;;;;;;;1999.90;999.90;;;;;;;3.76;100.00;102315.09;5026844;28;20067;-74
2022/11/12 03:55:55;;;;;;;1999.90;999.90;;;;;;;3.73;100.00;102313.25;5023173;28;20048;-74
2022/11/12 03:58:39;;;;;;;1999.90;999.90;;;;;;;3.71;100.00;102319.22;5025781;28;20040;-74
2022/11/12 04:01:23;;;;;;;1999.90;999.90;;;;;;;3.64;100.00;102319.72;5024888;28;20049;-74
2022/11/12 04:04:08;;;;;;;1999.90;999.90;;;;;;;3.57;100.00;102323.75;5026161;28;20100;-74
2022/11/12 04:09:55;;;;;;;1999.90;999.90;;;;;;;3.48;100.00;102316.34;5025575;28;20125;-74
2022/11/12 04:15:42;;;;;;;1999.90;999.90;;;;;;;3.49;100.00;102318.13;5025906;28;20480;-74
2022/11/12 04:21:55;;;;;;;1999.90;999.90;;;;;;;3.27;100.00;102310.00;5025510;28;20064;-75
2022/11/12 04:27:43;;;;;;;1999.90;999.90;;;;;;;3.15;100.00;102311.97;5024920;28;20095;-74
2022/11/12 04:30:27;;;;;;;1999.90;999.90;;;;;;;3.11;100.00;102315.22;5023937;28;20037;-74
2022/11/12 04:33:12;;;;;;;1999.90;999.90;;;;;;;3.06;100.00;102312.38;5025684;28;20120;-74
2022/11/12 04:35:55;;;;;;;1999.90;999.90;;;;;;;2.96;100.00;102313.63;5029131;28;20103;-74
2022/11/12 04:38:39;;;;;;;1999.90;999.90;;;;;;;2.88;100.00;102309.69;5028677;28;20569;-74
2022/11/12 04:47:32;;;;;;;1999.90;999.90;;;;;;;2.62;100.00;102314.41;5023790;28;20068;-74
2022/11/12 04:50:17;;;;;;;1999.90;999.90;;;;;;;2.65;100.00;102316.28;5024020;28;20085;-74
2022/11/12 04:53:01;;;;;;;1999.90;999.90;;;;;;;2.61;100.00;102325.63;5022881;28;20080;-74
2022/11/12 04:55:51;;;;;;;1999.90;999.90;;;;;;;2.62;100.00;102316.13;5021809;28;20483;-74
2022/11/12 04:58:35;;;;;;;1999.90;999.90;;;;;;;2.62;100.00;102322.22;5022459;28;20044;-74
2022/11/12 05:01:19;;;;;;;1999.90;999.90;;;;;;;2.62;100.00;102322.22;5022332;28;20049;-74
2022/11/12 05:04:03;;;;;;;1999.90;999.90;;;;;;;2.61;100.00;102317.81;5010688;28;20104;-74
2022/11/12 05:06:50;;;;;;;1999.90;999.90;;;;;;;2.60;100.00;102317.75;5025387;28;20914;-74
2022/11/12 05:09:35;;;;;;;1999.90;999.90;;;;;;;2.54;100.00;102325.19;5023428;28;20562;-74
2022/11/12 05:12:18;;;;;;;1999.90;999.90;;;;;;;2.49;100.00;102314.53;5024674;28;20419;-74
2022/11/12 05:15:04;;;;;;;1999.90;999.90;;;;;;;2.48;100.00;102317.06;5026147;28;20553;-74
2022/11/12 05:17:47;;;;;;;1999.90;999.90;;;;;;;2.42;100.00;102317.63;5021594;28;20056;-74
2022/11/12 05:20:31;;;;;;;1999.90;999.90;;;;;;;2.37;100.00;102314.75;5022323;28;20141;-74
2022/11/12 05:23:15;;;;;;;1999.90;999.90;;;;;;;2.34;100.00;102317.19;5024270;28;20045;-74
2022/11/12 05:25:59;;;;;;;1999.90;999.90;;;;;;;2.23;100.00;102318.31;5022810;28;20408;-74
2022/11/12 05:28:43;;;;;;;1999.90;999.90;;;;;;;2.21;100.00;102324.25;5021936;28;20049;-74
2022/11/12 05:31:27;;;;;;;1999.90;999.90;;;;;;;2.22;100.00;102326.03;5021554;28;20044;-74
2022/11/12 05:34:11;;;;;;;1999.90;999.90;;;;;;;2.21;100.00;102326.84;5025267;28;20100;-74
2022/11/12 05:36:56;;;;;;;1999.90;999.90;;;;;;;2.21;100.00;102332.06;5025882;28;20074;-74
2022/11/12 05:39:40;;;;;;;1999.90;999.90;;;;;;;2.08;100.00;102336.56;5022730;28;20184;-74
2022/11/12 05:42:24;;;;;;;1999.90;999.90;;;;;;;2.05;100.00;102339.00;5024338;28;20041;-74
2022/11/12 05:45:08;;;;;;;1999.90;999.90;;;;;;;2.05;100.00;102331.19;5021219;28;20092;-74
2022/11/12 05:47:52;;;;;;;1999.90;999.90;;;;;;;2.07;100.00;102345.19;5021080;28;20060;-74
2022/11/12 05:50:35;;;;;;;1999.90;999.90;;;;;;;2.09;100.00;102343.53;5023832;28;20138;-74
2022/11/12 05:53:20;;;;;;;1999.90;999.90;;;;;;;2.09;100.00;102338.34;5024135;28;20053;-74
2022/11/12 05:56:04;;;;;;;1999.90;999.90;;;;;;;2.09;100.00;102343.53;5021999;28;20073;-74
2022/11/12 05:58:48;;;;;;;1999.90;999.90;;;;;;;2.06;100.00;102351.19;5021250;28;20132;-74
2022/11/12 06:01:33;;;;;;;1999.90;999.90;;;;;;;2.09;100.00;102350.47;5020996;28;20081;-74
2022/11/12 06:04:17;;;;;;;1999.90;999.90;;;;;;;2.10;100.00;102355.78;5024903;28;20060;-74
2022/11/12 06:07:02;;;;;;;1999.90;999.90;;;;;;;2.14;100.00;102356.84;5025901;28;20076;-74
2022/11/12 06:09:47;;;;;;;1999.90;999.90;;;;;;;2.16;100.00;102365.66;5007301;28;20092;-74
2022/11/12 06:12:30;;;;;;;1999.90;999.90;;;;;;;2.17;100.00;102357.94;5024483;28;20689;-74
2022/11/12 06:15:15;;;;;;;1999.90;999.90;;;;;;;2.18;100.00;102358.81;5020848;28;20044;-74
2022/11/12 06:17:58;;;;;;;1999.90;999.90;;;;;;;2.22;100.00;102358.16;5020535;28;20049;-74
2022/11/12 06:20:42;;;;;;;1999.90;999.90;;;;;;;2.23;100.00;102359.06;5023083;28;20468;-74
2022/11/12 06:23:26;;;;;;;1999.90;999.90;;;;;;;2.19;100.00;102361.50;5023641;28;20531;-73
2022/11/12 06:26:10;;;;;;;1999.90;999.90;;;;;;;2.14;100.00;102357.72;5021465;28;20558;-74
2022/11/12 06:28:55;;;;;;;1999.90;999.90;;;;;;;2.17;100.00;102362.22;5021008;28;20096;-74
2022/11/12 06:31:39;;;;;;;1999.90;999.90;;;;;;;2.19;100.00;102365.81;5025941;28;20048;-74
2022/11/12 06:34:23;;;;;;;1999.90;999.90;;;;;;;2.24;100.00;102363.47;5025751;28;20095;-74
2022/11/12 06:37:07;;;;;;;1999.90;999.90;;;;;;;2.25;100.00;102370.47;5023163;28;20462;-74
2022/11/12 06:39:51;;;;;;;1999.90;999.90;;;;;;;2.25;100.00;102367.88;5021442;28;20052;-74
2022/11/12 06:42:35;;;;;;;1999.90;999.90;;;;;;;2.20;100.00;102365.00;5023776;28;20045;-74
2022/11/12 06:45:19;;;;;;;1999.90;999.90;;;;;;;2.17;100.00;102368.34;5020165;28;20052;-74
2022/11/12 06:48:03;;;;;;;1999.90;999.90;;;;;;;2.18;100.00;102370.13;5020424;28;20440;-74
2022/11/12 06:50:46;;;;;;;1999.90;999.90;;;;;;;2.24;100.00;102364.38;5022186;28;20432;-74
2022/11/12 06:53:30;;;;;;;1999.90;999.90;;;;;;;2.29;100.00;102368.13;5023179;28;20408;-74
2022/11/12 06:56:14;;;;;;;1999.90;999.90;;;;;;;2.32;100.00;102359.59;5020362;28;20084;-74
2022/11/12 06:58:59;;;;;;;1999.90;999.90;;;;;;;2.39;100.00;102366.97;5019887;28;20041;-74
2022/11/12 07:01:43;;;;;;;1999.90;999.90;;;;;;;2.43;100.00;102366.31;5019924;28;20053;-74
2022/11/12 07:04:27;;;;;;;1999.90;999.90;;;;;;;2.50;100.00;102352.81;5023073;28;20103;-74
2022/11/12 07:07:11;;;;;;;1999.90;999.90;;;;;;;2.58;100.00;102363.66;5022537;28;20052;-74
2022/11/12 07:09:55;;;;;;;1999.90;999.90;;;;;;;2.66;100.00;102361.50;5020858;28;20041;-74
2022/11/12 07:12:39;;;;;;;1999.90;999.90;;;;;;;2.79;100.00;102361.34;5023706;28;20403;-74
2022/11/12 07:15:23;;;;;;;1999.90;999.90;;;;;;;2.90;100.00;102361.94;5019462;28;20096;-74
2022/11/12 07:18:07;;;;;;;1999.90;999.90;;;;;;;2.97;100.00;102354.53;5019401;28;20048;-74
2022/11/12 07:21:03;;;;;;;1999.90;999.90;;;;;;;3.06;100.00;102359.31;5021691;28;20064;-74
2022/11/12 07:23:47;;;;;;;1999.90;999.90;;;;;;;3.16;100.00;102355.50;5024885;28;20096;-74
2022/11/12 07:26:31;;;;;;;1999.90;999.90;;;;;;;3.25;100.00;102359.50;5021514;28;20071;-74
2022/11/12 07:29:15;;;;;;;1999.90;999.90;;;;;;;3.29;100.00;102365.78;5021058;28;20460;-74
2022/11/12 07:31:59;;;;;;;1999.90;999.90;;;;;;;3.38;100.00;102368.88;5023079;28;20423;-74
2022/11/12 07:34:43;;;;;;;1999.90;999.90;;;;;;;3.45;100.00;102370.97;5018962;28;20095;-74
2022/11/12 07:37:27;;;;;;;1999.90;999.90;;;;;;;3.55;100.00;102372.34;5022701;28;20060;-74
2022/11/12 07:40:11;;;;;;;1999.90;999.90;;;;;;;3.65;100.00;102372.03;5021841;28;20056;-74
2022/11/12 07:42:57;;;;;;;1999.90;999.90;;;;;;;3.73;100.00;102369.81;5024836;28;20463;-74
2022/11/12 07:45:42;;;;;;;1999.90;999.90;;;;;;;3.81;100.00;102372.81;5020445;28;20169;-74
2022/11/12 07:48:27;;;;;;;1999.90;999.90;;;;;;;3.90;100.00;102368.97;5023543;28;20400;-74
2022/11/12 07:51:16;;;;;;;1999.90;999.90;;;;;;;4.01;100.00;102371.19;5019209;28;20566;-74
2022/11/12 07:53:59;;;;;;;1999.90;999.90;;;;;;;4.06;100.00;102362.78;5022872;28;20045;-74
2022/11/12 07:56:44;;;;;;;1999.90;999.90;;;;;;;4.13;100.00;102366.56;5022054;28;20088;-74
2022/11/12 07:59:27;;;;;;;1999.90;999.90;;;;;;;4.20;100.00;102368.69;5021443;28;20068;-74
2022/11/12 08:02:12;;;;;;;1999.90;999.90;;;;;;;4.26;100.00;102366.34;5020742;28;20053;-74
2022/11/12 08:04:55;;;;;;;1999.90;999.90;;;;;;;4.35;100.00;102372.03;5021717;28;20064;-74
2022/11/12 08:07:39;;;;;;;1999.90;999.90;;;;;;;4.43;100.00;102366.28;5021869;28;20049;-74
2022/11/12 08:10:23;;;;;;;1999.90;999.90;;;;;;;4.49;100.00;102364.84;5019725;28;20041;-74
2022/11/12 08:13:07;;;;;;;1999.90;999.90;;;;;;;4.55;100.00;102372.09;5022455;28;20119;-74
2022/11/12 08:15:51;;;;;;;1999.90;999.90;;;;;;;4.66;100.00;102376.09;5005894;28;20103;-74
2022/11/12 08:18:35;;;;;;;1999.90;999.90;;;;;;;4.72;100.00;102370.31;5020057;28;20053;-74
2022/11/12 08:21:19;;;;;;;1999.90;999.90;;;;;;;4.80;100.00;102380.28;5019178;28;20092;-74
2022/11/12 08:24:03;;;;;;;1999.90;999.90;;;;;;;4.89;100.00;102385.03;5022872;28;20049;-74
2022/11/12 08:26:47;;;;;;;1999.90;999.90;;;;;;;4.97;100.00;102373.22;5021430;28;20040;-74
2022/11/12 08:29:31;;;;;;;1999.90;999.90;;;;;;;5.04;100.00;102379.63;5023889;28;20547;-74
2022/11/12 08:32:14;;;;;;;1999.90;999.90;;;;;;;5.13;100.00;102368.69;5023961;28;20575;-74
2022/11/12 08:34:58;;;;;;;1999.90;999.90;;;;;;;5.20;100.00;102363.78;5028104;28;20048;-74
2022/11/12 08:37:42;;;;;;;1999.90;999.90;;;;;;;5.28;100.00;102374.63;5026041;28;20454;-74
2022/11/12 08:40:28;;;;;;;1999.90;999.90;;;;;;;5.38;100.00;102375.94;5022916;28;20049;-74
2022/11/12 08:43:12;;;;;;;1999.90;999.90;;;;;;;5.46;100.00;102374.53;5025507;28;20077;-74
2022/11/12 08:45:57;;;;;;;1999.90;999.90;;;;;;;5.57;100.00;102378.53;5023583;28;20045;-74
2022/11/12 08:48:41;;;;;;;1999.90;999.90;;;;;;;5.70;100.00;102385.19;5023146;28;20527;-74
2022/11/12 08:51:25;;;;;;;1999.90;999.90;;;;;;;5.85;100.00;102379.72;5022338;28;20123;-74
2022/11/12 08:54:09;;;;;;;1999.90;999.90;;;;;;;6.00;100.00;102383.03;5025865;28;20106;-74
2022/11/12 08:56:53;;;;;;;1999.90;999.90;;;;;;;6.15;100.00;102381.03;5024337;28;20414;-74
2022/11/12 08:59:37;;;;;;;1999.90;999.90;;;;;;;6.27;100.00;102379.75;5023868;28;20085;-74
2022/11/12 09:02:21;;;;;;;1999.90;999.90;;;;;;;6.42;100.00;102385.63;5023112;28;20121;-75
2022/11/12 09:05:05;;;;;;;1999.90;999.90;;;;;;;6.50;100.00;102386.84;5022224;28;20049;-74
2022/11/12 09:07:59;;;;;;;1999.90;999.90;;;;;;;6.59;100.00;102387.19;5025351;28;20045;-74
2022/11/12 09:10:43;;;;;;;1999.90;999.90;;;;;;;6.74;100.00;102389.53;5022455;28;20093;-74
2022/11/12 09:13:27;;;;;;;1999.90;999.90;;;;;;;6.86;100.00;102382.97;5022739;28;20048;-74
2022/11/12 09:16:11;;;;;;;1999.90;999.90;;;;;;;6.93;100.00;102385.88;5022193;28;20523;-74
2022/11/12 09:18:55;;;;;;;1999.90;999.90;;;;;;;7.06;100.00;102386.38;5023630;28;20052;-74
2022/11/12 09:21:39;;;;;;;1999.90;999.90;;;;;;;7.07;100.00;102383.78;5023291;28;20487;-74
2022/11/12 09:24:23;;;;;;;1999.90;999.90;;;;;;;7.14;100.00;102371.78;5024782;28;20091;-74
2022/11/12 09:27:07;;;;;;;1999.90;999.90;;;;;;;7.22;100.00;102378.22;5024407;28;20052;-75
2022/11/12 09:29:51;;;;;;;1999.90;999.90;;;;;;;7.29;100.00;102377.63;5024704;28;20554;-75
2022/11/12 09:32:35;;;;;;;1999.90;999.90;;;;;;;7.36;100.00;102370.84;5023836;28;20043;-74
2022/11/12 09:35:18;;;;;;;1999.90;999.90;;;;;;;7.46;100.00;102381.72;5022466;28;20103;-74
2022/11/12 09:38:03;;;;;;;1999.90;999.90;;;;;;;7.59;100.00;102383.06;5025728;28;20036;-74
2022/11/12 09:40:50;;;;;;;1999.90;999.90;;;;;;;7.75;100.00;102383.63;5024161;28;20102;-74
2022/11/12 09:43:41;;;;;;;1999.90;999.90;;;;;;;7.80;100.00;102385.56;5006926;28;20060;-75
2022/11/12 09:46:49;;;;;;;1999.90;999.90;;;;;;;7.87;100.00;102378.78;5020651;28;20048;-74
2022/11/12 09:50:11;;;;;;;1999.90;999.90;;;;;;;8.02;100.00;102391.56;5023551;28;20049;-74
2022/11/12 09:53:07;;;;;;;1999.90;999.90;;;;;;;8.12;100.00;102398.91;5024797;28;20125;-74
2022/11/12 09:55:51;;;;;;;1999.90;999.90;;;;;;;8.20;100.00;102380.75;5020986;28;20119;-74
2022/11/12 09:58:36;;;;;;;1999.90;999.90;;;;;;;8.31;100.00;102382.03;5020998;28;20129;-75
2022/11/12 10:01:29;;;;;;;1999.90;999.90;;;;;;;8.42;100.00;102392.94;5023325;28;20049;-74
2022/11/12 10:04:21;;;;;;;1999.90;999.90;;;;;;;8.51;99.91;102380.03;5026779;28;20717;-74
2022/11/12 10:07:15;;;;;;;1999.90;999.90;;;;;;;8.56;99.11;102384.59;5026498;28;20130;-74
2022/11/12 10:10:28;;;;;;;1999.90;999.90;;;;;;;8.59;97.92;102389.06;5021235;28;20149;-75
2022/11/12 10:13:33;;;;;;;1999.90;999.90;;;;;;;8.72;98.73;102383.38;5025821;28;20068;-75
2022/11/12 10:16:48;;;;;;;1999.90;999.90;;;;;;;8.81;97.90;102368.72;5022324;28;20112;-74
2022/11/12 10:20:05;;;;;;;1999.90;999.90;;;;;;;8.88;98.84;102368.03;5021956;28;20069;-75
2022/11/12 10:23:17;;;;;;;1999.90;999.90;;;;;;;8.97;97.57;102370.94;5022552;28;20104;-74
2022/11/12 10:26:10;;;;;;;1999.90;999.90;;;;;;;9.07;97.50;102364.22;5020944;28;20441;-75
2022/11/12 10:29:10;;;;;;;1999.90;999.90;;;;;;;9.20;97.37;102359.34;5021773;28;20517;-75
2022/11/12 10:31:54;;;;;;;1999.90;999.90;;;;;;;9.27;97.27;102357.75;5008945;28;20046;-75
2022/11/12 10:34:39;;;;;;;1999.90;999.90;;;;;;;9.35;95.83;102364.16;5023697;28;20076;-75
2022/11/12 10:37:28;;;;;;;1999.90;999.90;;;;;;;9.46;95.80;102355.63;5023733;28;20579;-75
2022/11/12 10:40:23;;;;;;;1999.90;999.90;;;;;;;9.53;95.33;102354.97;5023610;28;20443;-74
2022/11/12 10:43:17;;;;;;;1999.90;999.90;;;;;;;9.64;95.85;102343.88;5024260;28;20408;-75
2022/11/12 10:46:31;;;;;;;1999.90;999.90;;;;;;;9.77;94.46;102336.25;5022343;28;20100;-75
2022/11/12 10:49:15;;;;;;;1999.90;999.90;;;;;;;9.85;94.35;102332.06;5022180;28;20942;-75
2022/11/12 10:51:59;;;;;;;1999.90;999.90;;;;;;;9.98;94.20;102331.56;5020566;28;20052;-75
2022/11/12 10:54:42;;;;;;;1999.90;999.90;;;;;;;10.09;94.02;102332.72;5021649;28;20722;-75
2022/11/12 10:57:26;;;;;;;1999.90;999.90;;;;;;;10.20;93.57;102324.16;5019631;28;20045;-75
2022/11/12 11:00:17;;;;;;;1999.90;999.90;;;;;;;10.38;92.44;102334.31;5020061;28;20048;-75
2022/11/12 11:03:14;;;;;;;1999.90;999.90;;;;;;;10.46;92.25;102316.91;5023101;28;20107;-75
2022/11/12 11:06:01;;;;;;;1999.90;999.90;;;;;;;10.57;90.14;102325.94;5020141;28;20056;-75
2022/11/12 11:08:50;;;;;;;1999.90;999.90;;;;;;;10.65;90.35;102318.19;5022966;28;20115;-75
2022/11/12 11:11:34;;;;;;;1999.90;999.90;;;;;;;10.80;89.84;102307.09;5019849;28;20124;-74
2022/11/12 11:14:21;;;;;;;1999.90;999.90;;;;;;;10.94;88.55;102311.78;5023796;28;20099;-74
2022/11/12 11:17:12;;;;;;;1999.90;999.90;;;;;;;11.11;86.76;102325.34;5022324;28;20052;-75
2022/11/12 11:19:56;;;;;;;1999.90;999.90;;;;;;;11.27;87.08;102315.97;5022834;28;20071;-75
2022/11/12 11:22:44;;;;;;;1999.90;999.90;;;;;;;11.38;87.09;102308.25;5008494;28;20115;-75
2022/11/12 11:25:32;;;;;;;1999.90;999.90;;;;;;;11.54;86.25;102312.06;5021597;28;20100;-75
2022/11/12 11:28:55;;;;;;;1999.90;999.90;;;;;;;11.67;85.16;102321.13;5021452;28;20423;-75
2022/11/12 11:31:47;;;;;;;1999.90;999.90;;;;;;;11.85;85.37;102305.56;5020644;28;20059;-75
2022/11/12 11:34:50;;;;;;;1999.90;999.90;;;;;;;12.02;84.39;102309.38;5022852;28;20095;-75
2022/11/12 11:38:15;;;;;;;1999.90;999.90;;;;;;;12.18;81.61;102307.91;5022954;28;20415;-75
2022/11/12 11:41:19;;;;;;;1999.90;999.90;;;;;;;12.32;81.26;102301.94;5012509;28;20044;-75
2022/11/12 11:44:15;;;;;;;1999.90;999.90;;;;;;;12.46;80.95;102301.25;5022704;28;20045;-75
2022/11/12 11:47:35;;;;;;;1999.90;999.90;;;;;;;12.57;79.79;102298.75;5020189;28;20450;-75
2022/11/12 11:50:45;;;;;;;1999.90;999.90;;;;;;;12.71;79.11;102291.88;5021034;28;20045;-75
2022/11/12 11:53:46;;;;;;;1999.90;999.90;;;;;;;12.87;78.71;102287.66;5007965;28;20130;-75
2022/11/12 11:56:38;;;;;;;1999.90;999.90;;;;;;;13.00;77.38;102288.72;5021292;28;20137;-75
2022/11/12 12:00:01;;;;;;;1999.90;999.90;;;;;;;13.13;77.45;102295.94;5021868;28;20148;-75
2022/11/12 12:03:08;;;;;;;1999.90;999.90;;;;;;;13.29;77.40;102286.41;5023936;28;20057;-75
2022/11/12 12:06:21;;;;;;;1999.90;999.90;;;;;;;13.38;76.18;102285.63;5028098;28;20099;-75
2022/11/12 12:09:25;;;;;;;1999.90;999.90;;;;;;;13.41;76.15;102285.66;5024262;28;20504;-75
2022/11/12 12:12:26;;;;;;;1999.90;999.90;;;;;;;13.64;76.09;102282.34;5026134;28;20566;-75
2022/11/12 12:15:45;;;;;;;1999.90;999.90;;;;;;;13.84;75.19;102291.38;5019890;28;20092;-75
2022/11/12 12:19:09;;;;;;;1999.90;999.90;;;;;;;14.06;73.79;102271.19;5024012;28;20542;-75
2022/11/12 12:21:57;;;;;;;1999.90;999.90;;;;;;;14.19;75.32;102274.81;5024787;28;20133;-75
2022/11/12 12:24:54;;;;;;;1999.90;999.90;;;;;;;14.31;74.72;102276.66;5025912;28;20056;-75
2022/11/12 12:27:47;;;;;;;1999.90;999.90;;;;;;;14.48;73.64;102265.22;5025364;28;20084;-75
2022/11/12 12:30:36;;;;;;;1999.90;999.90;;;;;;;14.70;73.17;102265.41;5026017;28;20517;-75
2022/11/12 12:33:42;;;;;;;1999.90;999.90;;;;;;;14.90;73.15;102273.44;5026804;28;20052;-74
2022/11/12 12:36:38;;;;;;;1999.90;999.90;;;;;;;15.02;72.23;102270.81;5028092;28;20049;-75
2022/11/12 12:39:47;;;;;;;1999.90;999.90;;;;;;;15.11;71.66;102275.28;5025128;28;20052;-75